Time;durP1;ratioP1;P1;durP2;ratioP2;P2;SDS_P1;SDS_P2;PMS_P1;PMS_P2;Temp;Humidity;BMP_temperature;BMP_pressure;BME280_temperature;BME280_humidity;BME280_pressure;Samples;Min_cycle;Max_cycle;Signal;HPM_P1;HPM_P2
2021/08/05 00:01:06;;;;;;;1.83;1.60;;;;;;;16.22;73.40;101360.16;3573299;40;20234;-82
2021/08/05 00:03:32;;;;;;;2.63;2.10;;;;;;;16.18;73.71;101357.56;3574038;40;20231;-79
2021/08/05 00:05:57;;;;;;;2.53;1.70;;;;;;;16.19;74.01;101356.69;3574045;40;20238;-82
2021/08/05 00:08:22;;;;;;;1.97;1.77;;;;;;;16.15;74.01;101355.81;3573787;40;20277;-81
2021/08/05 00:10:47;;;;;;;1.80;1.63;;;;;;;16.13;74.64;101360.13;3573428;40;20235;-82
2021/08/05 00:13:13;;;;;;;2.20;1.60;;;;;;;16.13;74.25;101349.78;3574744;40;20231;-82
2021/08/05 00:15:38;;;;;;;1.83;1.53;;;;;;;16.10;74.55;101352.34;3575127;40;20241;-82
2021/08/05 00:18:03;;;;;;;1.50;1.40;;;;;;;16.10;74.32;101360.09;3575488;40;20230;-81
2021/08/05 00:20:29;;;;;;;2.13;1.90;;;;;;;16.08;74.45;101354.06;3575016;40;20247;-81
2021/08/05 00:22:54;;;;;;;2.67;1.70;;;;;;;16.07;74.58;101348.88;3575191;40;20227;-82
2021/08/05 00:25:19;;;;;;;1.77;1.50;;;;;;;16.06;75.04;101352.31;3574664;40;20742;-81
2021/08/05 00:27:45;;;;;;;2.00;1.67;;;;;;;16.06;74.75;101349.72;3575147;40;20255;-81
2021/08/05 00:30:11;;;;;;;1.90;1.70;;;;;;;16.06;74.59;101342.84;3573815;40;20235;-80
2021/08/05 00:32:36;;;;;;;2.03;1.80;;;;;;;16.05;74.99;101355.75;3574669;40;20237;-80
2021/08/05 00:35:02;;;;;;;2.10;1.90;;;;;;;16.02;75.02;101351.44;3576228;40;20227;-82
2021/08/05 00:37:27;;;;;;;3.67;2.00;;;;;;;16.07;74.96;101344.56;3577538;40;20222;-81
2021/08/05 00:39:53;;;;;;;2.37;2.17;;;;;;;16.12;75.04;101326.53;3576325;40;20242;-81
2021/08/05 00:42:18;;;;;;;2.17;1.97;;;;;;;16.16;74.45;101330.84;3574415;40;20238;-81
2021/08/05 00:44:43;;;;;;;1.83;1.33;;;;;;;16.16;74.78;101329.09;3574755;40;20241;-82
2021/08/05 00:47:09;;;;;;;2.13;1.90;;;;;;;16.15;74.38;101321.34;3575498;40;20694;-81
2021/08/05 00:49:35;;;;;;;1.83;1.73;;;;;;;16.16;74.67;101323.09;3575319;40;20270;-81
2021/08/05 00:52:00;;;;;;;2.93;2.07;;;;;;;16.20;74.43;101319.63;3575123;40;20238;-81
2021/08/05 00:54:26;;;;;;;3.40;2.13;;;;;;;16.20;74.02;101325.69;3575480;40;20242;-81
2021/08/05 00:56:51;;;;;;;3.17;2.20;;;;;;;16.19;73.80;101326.56;3575096;40;20327;-80
2021/08/05 00:59:16;;;;;;;2.70;2.40;;;;;;;16.21;74.01;101331.72;3574696;40;20245;-81
2021/08/05 01:01:49;;;;;;;1.77;1.67;;;;;;;16.20;73.60;101328.28;3574455;40;20230;-81
2021/08/05 01:04:15;;;;;;;3.50;2.00;;;;;;;16.22;73.83;101325.69;3575041;40;20237;-81
2021/08/05 01:06:56;;;;;;;2.40;1.87;;;;;;;16.23;73.64;101328.28;3582517;40;20605;-81
2021/08/05 01:09:27;;;;;;;1.60;1.50;;;;;;;16.24;73.76;101319.69;3574192;40;20250;-81
2021/08/05 01:12:06;;;;;;;2.90;1.80;;;;;;;16.29;73.88;101322.25;3575304;40;20275;-81
2021/08/05 01:14:36;;;;;;;2.67;2.17;;;;;;;16.22;74.00;101323.13;3574882;40;20504;-81
2021/08/05 01:17:03;;;;;;;2.10;1.90;;;;;;;16.19;74.16;101323.97;3564788;40;20269;-85
2021/08/05 01:19:40;;;;;;;2.50;1.77;;;;;;;16.16;74.29;101321.34;3565490;40;20251;-81
2021/08/05 01:22:43;;;;;;;2.37;1.60;;;;;;;16.16;74.42;101317.94;3573357;40;20234;-81
2021/08/05 01:25:30;;;;;;;2.10;1.90;;;;;;;16.13;74.45;101318.78;3564584;40;20226;-81
2021/08/05 01:27:57;;;;;;;1.60;1.50;;;;;;;16.12;74.40;101313.59;3575458;40;20605;-81
2021/08/05 01:30:23;;;;;;;1.70;1.60;;;;;;;16.12;74.15;101323.94;3582406;40;20274;-81
2021/08/05 01:32:49;;;;;;;2.30;2.10;;;;;;;16.08;74.25;101324.78;3574280;40;20227;-82
2021/08/05 01:35:15;;;;;;;1.87;1.77;;;;;;;16.06;74.17;101323.88;3574482;40;20231;-82
2021/08/05 01:37:41;;;;;;;2.00;1.90;;;;;;;16.04;74.08;101323.03;3582811;40;20316;-81
2021/08/05 01:40:08;;;;;;;4.80;2.07;;;;;;;16.01;74.55;101320.41;3575074;40;20246;-80
2021/08/05 01:42:33;;;;;;;2.23;1.77;;;;;;;15.96;74.30;101317.81;3574618;40;20388;-81
2021/08/05 01:44:59;;;;;;;2.17;1.97;;;;;;;15.92;74.45;101320.38;3575268;40;20249;-81
2021/08/05 01:47:26;;;;;;;2.10;1.90;;;;;;;15.85;74.68;101313.47;3574850;40;20231;-81
2021/08/05 01:49:52;;;;;;;2.43;2.00;;;;;;;15.80;74.79;101315.16;3575020;40;20258;-81
2021/08/05 01:52:18;;;;;;;2.07;1.87;;;;;;;15.77;74.81;101320.28;3576850;40;20284;-82
2021/08/05 01:54:44;;;;;;;3.10;1.67;;;;;;;15.78;74.96;101314.25;3575393;40;20336;-82
2021/08/05 01:57:11;;;;;;;4.83;2.20;;;;;;;15.72;75.27;101315.13;3575531;40;20596;-82
2021/08/05 01:59:36;;;;;;;1.90;1.63;;;;;;;15.69;74.60;101311.63;3575051;40;20243;-81
2021/08/05 02:02:02;;;;;;;2.17;1.80;;;;;;;15.72;74.86;101312.53;3575688;40;20226;-81
2021/08/05 02:04:55;;;;;;;2.73;2.00;;;;;;;15.70;75.05;101310.78;3575543;40;20590;-82
2021/08/05 02:07:25;;;;;;;2.03;1.67;;;;;;;15.66;75.35;101312.47;3575206;40;20242;-81
2021/08/05 02:10:16;;;;;;;1.90;1.73;;;;;;;15.64;75.47;101315.91;3573570;40;20566;-82
2021/08/05 02:12:48;;;;;;;2.40;2.20;;;;;;;15.60;75.26;101314.16;3575357;40;20218;-81
2021/08/05 02:15:15;;;;;;;2.10;1.90;;;;;;;15.58;75.46;101310.69;3575258;40;20250;-86
2021/08/05 02:17:43;;;;;;;3.60;2.30;;;;;;;15.56;76.02;101313.28;3575104;40;20223;-82
2021/08/05 02:20:10;;;;;;;2.07;1.80;;;;;;;15.57;75.64;101315.00;3575352;40;20246;-81
2021/08/05 02:22:39;;;;;;;3.17;2.27;;;;;;;15.58;75.69;101313.28;3575405;40;20238;-82
2021/08/05 02:25:06;;;;;;;1.73;1.63;;;;;;;15.58;75.97;101311.59;3575150;40;20280;-82
2021/08/05 02:27:32;;;;;;;2.33;2.13;;;;;;;15.60;75.74;101314.16;3574242;40;20292;-80
2021/08/05 02:29:58;;;;;;;3.23;2.10;;;;;;;15.63;75.60;101311.59;3574399;40;20242;-81
2021/08/05 02:32:24;;;;;;;1.77;1.67;;;;;;;15.63;75.46;101309.88;3573866;40;20309;-80
2021/08/05 02:34:51;;;;;;;3.53;1.97;;;;;;;15.61;75.68;101309.00;3573690;40;20266;-81
2021/08/05 02:37:16;;;;;;;2.87;1.90;;;;;;;15.63;75.53;101315.06;3574737;40;20921;-82
2021/08/05 02:39:41;;;;;;;2.47;2.10;;;;;;;15.64;75.45;101314.19;3576316;40;20242;-81
2021/08/05 02:42:09;;;;;;;2.60;1.77;;;;;;;15.67;75.01;101313.34;3575612;40;20230;-82
2021/08/05 02:44:35;;;;;;;1.90;1.73;;;;;;;15.68;75.30;101307.31;3577102;40;20751;-81
2021/08/05 02:47:01;;;;;;;2.60;1.77;;;;;;;15.68;75.12;101305.63;3576811;40;20234;-81
2021/08/05 02:49:29;;;;;;;3.23;2.20;;;;;;;15.70;74.67;101298.72;3576408;40;20300;-82
2021/08/05 02:51:56;;;;;;;1.97;1.53;;;;;;;15.72;74.38;101296.16;3576676;40;20230;-81
2021/08/05 02:54:22;;;;;;;2.20;1.60;;;;;;;15.74;74.40;101290.16;3576634;40;20225;-82
2021/08/05 02:56:48;;;;;;;1.83;1.73;;;;;;;15.76;74.18;101292.75;3575849;40;20223;-81
2021/08/05 02:59:13;;;;;;;1.70;1.60;;;;;;;15.75;73.94;101289.28;3575726;40;20242;-81
2021/08/05 03:01:40;;;;;;;2.53;1.70;;;;;;;15.75;74.46;101288.44;3584041;40;20234;-81
2021/08/05 03:04:05;;;;;;;2.57;1.73;;;;;;;15.75;74.16;101288.44;3583261;40;20530;-80
2021/08/05 03:06:31;;;;;;;2.53;1.90;;;;;;;15.74;74.52;101284.13;3575207;40;20234;-82
2021/08/05 03:08:56;;;;;;;2.47;1.63;;;;;;;15.76;74.29;101285.00;3575830;40;20266;-82
2021/08/05 03:11:22;;;;;;;2.50;1.80;;;;;;;15.77;73.97;101278.97;3573413;40;20535;-81
2021/08/05 03:13:47;;;;;;;1.70;1.60;;;;;;;15.78;73.91;101278.09;3573550;40;20226;-81
2021/08/05 03:16:14;;;;;;;1.83;1.73;;;;;;;15.77;73.87;101273.81;3575204;40;20230;-81
2021/08/05 03:18:40;;;;;;;1.80;1.70;;;;;;;15.76;74.17;101274.66;3574829;40;20652;-82
2021/08/05 03:21:05;;;;;;;2.00;1.80;;;;;;;15.76;73.80;101278.13;3575798;40;20231;-81
2021/08/05 03:23:31;;;;;;;3.70;1.60;;;;;;;15.76;74.17;101275.53;3575483;40;20634;-82
2021/08/05 03:25:56;;;;;;;2.73;1.77;;;;;;;15.76;74.01;101269.50;3575497;40;20223;-82
2021/08/05 03:28:21;;;;;;;3.07;1.73;;;;;;;15.75;74.01;101276.38;3576034;40;20266;-82
2021/08/05 03:30:46;;;;;;;3.03;2.00;;;;;;;15.75;73.88;101271.22;3575720;40;20230;-82
2021/08/05 03:33:12;;;;;;;1.60;1.47;;;;;;;15.77;74.22;101272.09;3575586;40;20238;-82
2021/08/05 03:35:37;;;;;;;2.47;1.70;;;;;;;15.78;73.93;101262.59;3575951;40;20230;-81
2021/08/05 03:38:02;;;;;;;3.07;1.70;;;;;;;15.76;73.98;101262.63;3575181;40;20453;-81
2021/08/05 03:40:27;;;;;;;3.03;1.90;;;;;;;15.76;74.39;101269.50;3576235;40;20246;-82
2021/08/05 03:42:53;;;;;;;2.17;1.70;;;;;;;15.85;73.19;101266.97;3575976;40;20210;-82
2021/08/05 03:45:18;;;;;;;1.60;1.50;;;;;;;15.82;73.18;101254.91;3576620;40;20234;-82
2021/08/05 03:47:43;;;;;;;1.83;1.73;;;;;;;15.90;73.15;101257.50;3584698;40;20573;-80
2021/08/05 03:50:09;;;;;;;4.03;2.20;;;;;;;15.93;72.28;101262.72;3575369;40;20254;-81
2021/08/05 03:52:34;;;;;;;3.97;1.80;;;;;;;15.93;72.60;101257.53;3575360;40;20238;-82
2021/08/05 03:55:00;;;;;;;2.37;1.53;;;;;;;15.93;72.64;101265.28;3573731;40;20230;-82
2021/08/05 03:57:25;;;;;;;3.40;2.27;;;;;;;16.23;70.41;101248.19;3574948;40;20601;-82
2021/08/05 03:59:50;;;;;;;2.33;1.80;;;;;;;16.22;69.97;101243.88;3573683;40;20242;-82
2021/08/05 04:02:15;;;;;;;1.90;1.70;;;;;;;16.13;70.60;101241.25;3575254;40;20545;-81
2021/08/05 04:04:41;;;;;;;2.20;1.80;;;;;;;16.21;70.50;101243.88;3575437;40;20238;-82
2021/08/05 04:07:07;;;;;;;2.37;1.90;;;;;;;16.39;69.60;101244.75;3574321;40;20281;-82
2021/08/05 04:09:33;;;;;;;1.93;1.67;;;;;;;16.33;69.50;101249.94;3574849;40;20254;-81
2021/08/05 04:11:58;;;;;;;3.33;1.90;;;;;;;16.44;69.21;101247.41;3575304;40;20236;-82
2021/08/05 04:14:23;;;;;;;2.70;1.73;;;;;;;16.28;69.34;101246.47;3574712;40;20231;-83
2021/08/05 04:16:49;;;;;;;1.60;1.50;;;;;;;16.31;69.55;101245.59;3575793;40;20233;-81
2021/08/05 04:19:14;;;;;;;1.90;1.50;;;;;;;16.37;69.59;101251.66;3575694;40;20242;-81
2021/08/05 04:21:39;;;;;;;1.50;1.40;;;;;;;16.25;69.84;101251.63;3575506;40;20512;-81
2021/08/05 04:24:05;;;;;;;2.37;1.90;;;;;;;16.34;69.10;101251.63;3575543;40;20223;-82
2021/08/05 04:26:30;;;;;;;1.40;1.30;;;;;;;16.29;69.14;101255.94;3575598;40;20328;-81
2021/08/05 04:28:55;;;;;;;2.17;1.60;;;;;;;16.24;69.88;101261.94;3575571;40;20234;-82
2021/08/05 04:31:21;;;;;;;3.03;1.53;;;;;;;16.23;70.12;101249.88;3576269;40;20226;-81
2021/08/05 04:33:46;;;;;;;2.10;1.90;;;;;;;16.57;68.46;101255.16;3574944;40;20243;-82
2021/08/05 04:36:11;;;;;;;2.70;1.90;;;;;;;16.63;67.85;101251.75;3575931;40;20222;-81
2021/08/05 04:38:36;;;;;;;1.87;1.70;;;;;;;16.44;67.87;101253.41;3576570;40;21909;-82
2021/08/05 04:41:02;;;;;;;3.53;2.13;;;;;;;16.47;67.95;101262.91;3575401;40;20230;-83
2021/08/05 04:43:27;;;;;;;2.93;2.27;;;;;;;16.35;68.51;101263.69;3584597;40;20230;-82
2021/08/05 04:45:52;;;;;;;16.77;11.30;;;;;;;16.40;67.79;101258.59;3576718;40;20242;-83
2021/08/05 04:48:17;;;;;;;8.50;6.47;;;;;;;16.59;67.40;101261.22;3574363;40;20238;-79
2021/08/05 04:50:48;;;;;;;4.13;3.50;;;;;;;16.66;67.16;101254.31;3576611;40;20231;-80
2021/08/05 04:53:17;;;;;;;3.27;2.60;;;;;;;16.47;68.32;101252.56;3575933;40;20233;-81
2021/08/05 04:55:42;;;;;;;2.73;1.70;;;;;;;16.39;68.65;101254.25;3576159;40;20691;-80
2021/08/05 04:58:07;;;;;;;2.97;1.80;;;;;;;16.41;68.90;101249.97;3576040;40;20238;-80
2021/08/05 05:00:35;;;;;;;2.37;2.00;;;;;;;16.41;68.86;101242.22;3576042;40;20258;-80
2021/08/05 05:03:01;;;;;;;2.43;2.20;;;;;;;16.47;68.71;101244.81;3574362;40;20250;-80
2021/08/05 05:05:28;;;;;;;2.60;1.80;;;;;;;16.42;68.55;101241.34;3575702;40;20230;-80
2021/08/05 05:07:53;;;;;;;2.37;1.47;;;;;;;16.37;68.96;101248.19;3576299;40;20230;-80
2021/08/05 05:10:20;;;;;;;2.03;1.70;;;;;;;16.33;69.48;101247.34;3576149;40;20309;-81
2021/08/05 05:12:46;;;;;;;1.90;1.70;;;;;;;16.36;69.98;101249.06;3575371;40;20231;-81
2021/08/05 05:15:12;;;;;;;2.20;1.30;;;;;;;16.37;70.03;101248.19;3576727;40;20293;-80
2021/08/05 05:17:39;;;;;;;1.67;1.53;;;;;;;16.39;70.02;101246.50;3576361;40;20233;-81
2021/08/05 05:20:05;;;;;;;2.37;1.60;;;;;;;16.49;68.93;101248.28;3575104;40;20242;-81
2021/08/05 05:22:31;;;;;;;1.53;1.40;;;;;;;16.50;69.17;101243.09;3576584;40;20223;-81
2021/08/05 05:24:57;;;;;;;1.63;1.53;;;;;;;16.56;69.51;101244.81;3577196;40;20238;-81
2021/08/05 05:27:22;;;;;;;2.17;1.73;;;;;;;16.58;68.71;101243.13;3577413;40;20227;-80
2021/08/05 05:29:48;;;;;;;2.10;1.90;;;;;;;16.82;68.19;101243.13;3575911;40;20250;-80
2021/08/05 05:32:13;;;;;;;3.20;2.30;;;;;;;16.89;67.31;101245.72;3575585;40;20343;-80
2021/08/05 05:34:38;;;;;;;2.10;1.90;;;;;;;16.97;67.45;101244.00;3576356;40;20231;-80
2021/08/05 05:37:04;;;;;;;1.83;1.60;;;;;;;16.88;68.01;101244.00;3575325;40;20230;-81
2021/08/05 05:39:29;;;;;;;2.73;2.07;;;;;;;16.98;66.92;101243.13;3576874;40;20644;-80
2021/08/05 05:41:55;;;;;;;3.47;2.13;;;;;;;16.90;67.39;101244.84;3575909;40;20227;-80
2021/08/05 05:44:20;;;;;;;2.70;2.10;;;;;;;17.01;66.69;101245.72;3575602;40;20234;-81
2021/08/05 05:46:45;;;;;;;2.90;2.00;;;;;;;16.98;67.26;101247.44;3576646;40;20666;-79
2021/08/05 05:49:11;;;;;;;4.07;2.10;;;;;;;17.17;66.08;101244.84;3576303;40;20415;-81
2021/08/05 05:51:36;;;;;;;2.27;2.00;;;;;;;17.27;66.03;101237.94;3576009;40;20517;-80
2021/08/05 05:54:02;;;;;;;2.13;1.93;;;;;;;17.34;66.05;101231.88;3576684;40;20726;-80
2021/08/05 05:56:27;;;;;;;2.37;1.83;;;;;;;17.30;66.66;101235.31;3576414;40;20234;-81
2021/08/05 05:58:52;;;;;;;2.80;1.97;;;;;;;17.52;64.83;101237.94;3576348;40;20242;-81
2021/08/05 06:01:17;;;;;;;2.00;1.80;;;;;;;17.74;64.29;101238.72;3576430;40;20230;-81
2021/08/05 06:03:43;;;;;;;2.40;2.00;;;;;;;17.60;64.70;101241.34;3575990;40;20582;-81
2021/08/05 06:06:08;;;;;;;2.97;1.93;;;;;;;17.63;64.15;101236.16;3576639;40;20222;-80
2021/08/05 06:08:33;;;;;;;2.87;2.00;;;;;;;17.75;64.04;101241.31;3576355;40;20319;-79
2021/08/05 06:10:58;;;;;;;2.07;1.80;;;;;;;17.71;64.37;101233.53;3576799;40;20605;-81
2021/08/05 06:13:24;;;;;;;2.60;2.07;;;;;;;17.68;64.49;101234.41;3576776;40;20243;-81
2021/08/05 06:15:49;;;;;;;2.13;1.93;;;;;;;17.73;64.29;101237.84;3577147;40;20662;-81
2021/08/05 06:18:14;;;;;;;2.47;2.27;;;;;;;17.72;64.66;101235.25;3576548;40;20234;-82
2021/08/05 06:20:40;;;;;;;2.30;2.10;;;;;;;17.87;63.48;101235.22;3575448;40;20234;-81
2021/08/05 06:23:08;;;;;;;2.83;1.90;;;;;;;17.91;63.67;101226.56;3576921;40;20309;-81
2021/08/05 06:25:35;;;;;;;2.77;2.23;;;;;;;17.95;62.97;101229.13;3575258;40;20797;-79
2021/08/05 06:28:00;;;;;;;2.03;1.73;;;;;;;17.78;64.09;101232.66;3584711;40;20657;-81
2021/08/05 06:30:26;;;;;;;2.73;2.20;;;;;;;17.85;63.73;101232.63;3576386;40;20337;-81
2021/08/05 06:32:52;;;;;;;3.53;2.30;;;;;;;17.93;63.72;101224.81;3576544;40;20240;-82
2021/08/05 06:35:17;;;;;;;3.43;2.00;;;;;;;17.92;63.43;101233.47;3576137;40;20237;-79
2021/08/05 06:37:43;;;;;;;2.40;1.80;;;;;;;17.76;64.31;101231.78;3576486;40;20222;-79
2021/08/05 06:40:09;;;;;;;1.73;1.63;;;;;;;17.73;64.72;101232.66;3575063;40;20257;-81
2021/08/05 06:42:35;;;;;;;2.60;2.20;;;;;;;17.83;64.26;101239.53;3576277;40;20238;-80
2021/08/05 06:45:01;;;;;;;2.90;2.07;;;;;;;17.94;63.90;101230.00;3576966;40;20241;-81
2021/08/05 06:47:26;;;;;;;2.60;2.00;;;;;;;18.03;63.77;101231.69;3575818;40;20230;-82
2021/08/05 06:49:52;;;;;;;2.60;2.27;;;;;;;18.15;63.05;101236.81;3576676;40;20244;-82
2021/08/05 06:52:17;;;;;;;4.03;2.30;;;;;;;18.31;62.49;101228.06;3575710;40;20226;-82
2021/08/05 06:54:42;;;;;;;5.30;2.30;;;;;;;18.53;62.08;101238.34;3576051;40;20233;-80
2021/08/05 06:57:07;;;;;;;3.00;2.50;;;;;;;18.66;61.45;101234.78;3576844;40;20218;-80
2021/08/05 06:59:33;;;;;;;2.83;2.20;;;;;;;18.47;62.63;101240.97;3576279;40;20245;-80
2021/08/05 07:01:59;;;;;;;3.00;2.43;;;;;;;18.61;61.86;101226.16;3576024;40;20226;-80
2021/08/05 07:04:24;;;;;;;3.03;2.30;;;;;;;18.70;61.56;101228.69;3576303;40;20230;-81
2021/08/05 07:06:50;;;;;;;2.90;2.27;;;;;;;18.89;61.59;101225.09;3575048;40;20231;-81
2021/08/05 07:09:15;;;;;;;2.53;2.30;;;;;;;19.05;60.70;101220.63;3576332;40;20293;-81
2021/08/05 07:11:40;;;;;;;3.30;2.40;;;;;;;18.91;60.99;101227.69;3576536;40;20230;-82
2021/08/05 07:14:08;;;;;;;2.80;2.23;;;;;;;19.00;60.34;101225.00;3576081;40;20285;-81
2021/08/05 07:16:34;;;;;;;3.90;2.43;;;;;;;19.29;58.96;101212.63;3575448;40;20264;-80
2021/08/05 07:18:59;;;;;;;3.93;2.20;;;;;;;19.52;58.37;101223.63;3575999;40;20242;-80
2021/08/05 07:21:24;;;;;;;3.07;2.00;;;;;;;19.41;58.18;101223.78;3574370;40;20242;-79
2021/08/05 07:23:49;;;;;;;3.27;2.20;;;;;;;19.49;58.40;101216.75;3582986;40;20219;-79
2021/08/05 07:26:15;;;;;;;2.40;2.13;;;;;;;19.50;59.49;101217.63;3575411;40;20229;-79
2021/08/05 07:28:40;;;;;;;3.20;2.33;;;;;;;19.32;60.18;101223.00;3574870;40;20454;-80
2021/08/05 07:31:05;;;;;;;3.90;2.30;;;;;;;19.43;59.68;101223.78;3574721;40;20246;-80
2021/08/05 07:33:31;;;;;;;3.03;2.20;;;;;;;19.50;59.06;101223.69;3574257;40;20238;-80
2021/08/05 07:35:56;;;;;;;2.50;2.03;;;;;;;19.71;59.35;101213.03;3574276;40;20223;-80
2021/08/05 07:38:23;;;;;;;3.30;2.20;;;;;;;19.83;59.26;101219.81;3575312;40;20490;-79
2021/08/05 07:40:48;;;;;;;5.43;2.97;;;;;;;20.24;56.69;101212.38;3574559;40;20233;-79
2021/08/05 07:43:14;;;;;;;2.77;2.50;;;;;;;20.32;58.02;101221.78;3575175;40;20230;-80
2021/08/05 07:45:46;;;;;;;3.87;2.60;;;;;;;20.69;55.60;101212.53;3575052;40;20292;-80
2021/08/05 07:48:12;;;;;;;3.50;2.13;;;;;;;20.68;55.94;101220.41;3573516;40;20234;-80
2021/08/05 07:50:37;;;;;;;2.20;2.00;;;;;;;20.75;56.57;101217.66;3574927;40;20286;-80
2021/08/05 07:53:03;;;;;;;3.00;2.37;;;;;;;21.04;53.94;101222.41;3575632;40;20277;-80
2021/08/05 07:55:30;;;;;;;2.07;1.87;;;;;;;20.94;55.65;101216.50;3575237;40;20282;-79
2021/08/05 07:57:55;;;;;;;3.03;2.43;;;;;;;21.08;55.10;101219.72;3575376;40;20238;-79
2021/08/05 08:00:20;;;;;;;2.67;2.30;;;;;;;21.22;53.98;101222.97;3573939;40;20242;-81
2021/08/05 08:02:45;;;;;;;2.63;2.40;;;;;;;21.48;54.08;101212.03;3574611;40;20237;-81
2021/08/05 08:05:14;;;;;;;2.37;2.17;;;;;;;21.42;54.72;101220.84;3574128;40;20553;-81
2021/08/05 08:07:39;;;;;;;3.07;2.70;;;;;;;21.34;54.97;101214.06;3575436;40;20234;-80
2021/08/05 08:10:06;;;;;;;3.40;2.40;;;;;;;21.19;56.23;101212.56;3574826;40;20237;-79
2021/08/05 08:12:31;;;;;;;3.17;2.80;;;;;;;21.37;55.27;101214.84;3575312;40;20304;-85
2021/08/05 08:14:56;;;;;;;3.20;2.50;;;;;;;21.50;56.67;101207.66;3575335;40;20223;-80
2021/08/05 08:17:21;;;;;;;2.90;2.53;;;;;;;21.61;56.10;101205.72;3574145;40;20222;-80
2021/08/05 08:19:47;;;;;;;3.60;2.50;;;;;;;22.00;54.39;101204.91;3574747;40;20568;-80
2021/08/05 08:22:12;;;;;;;4.10;2.40;;;;;;;22.02;53.28;101205.75;3573656;40;20226;-80
2021/08/05 08:24:37;;;;;;;2.57;2.37;;;;;;;22.31;53.28;101203.34;3575761;40;20225;-80
2021/08/05 08:27:03;;;;;;;3.17;2.77;;;;;;;22.33;53.54;101201.56;3575587;40;20312;-80
2021/08/05 08:29:28;;;;;;;3.07;2.77;;;;;;;22.32;53.68;101191.19;3575158;40;20254;-80
2021/08/05 08:31:53;;;;;;;4.10;2.67;;;;;;;22.38;52.96;101191.03;3582600;40;20246;-80
2021/08/05 08:34:19;;;;;;;3.93;2.53;;;;;;;22.49;53.93;101189.91;3575362;40;20234;-80
2021/08/05 08:36:45;;;;;;;4.10;2.93;;;;;;;22.82;52.25;101186.47;3575838;40;20234;-80
2021/08/05 08:39:10;;;;;;;3.27;2.73;;;;;;;23.06;52.11;101188.47;3575979;40;20238;-81
2021/08/05 08:41:38;;;;;;;3.03;2.53;;;;;;;22.94;52.68;101185.31;3576872;40;20284;-81
2021/08/05 08:44:03;;;;;;;2.70;2.40;;;;;;;23.12;52.54;101177.88;3576645;40;20219;-81
2021/08/05 08:46:36;;;;;;;3.93;2.47;;;;;;;23.09;52.72;101179.69;3583849;40;20237;-80
2021/08/05 08:49:03;;;;;;;7.23;2.60;;;;;;;23.34;51.26;101180.78;3575887;40;20262;-80
2021/08/05 08:51:31;;;;;;;3.50;2.60;;;;;;;23.64;50.61;101170.31;3576092;40;20271;-80
2021/08/05 08:54:00;;;;;;;2.50;2.30;;;;;;;23.86;49.78;101174.03;3577075;40;20223;-80
2021/08/05 08:56:26;;;;;;;5.15;2.70;;;;;;;23.84;50.44;101174.97;3576412;40;20267;-80
2021/08/05 08:58:52;;;;;;;4.18;2.60;;;;;;;23.89;49.16;101173.09;3576725;40;20674;-80
2021/08/05 09:01:17;;;;;;;3.77;2.60;;;;;;;24.08;48.51;101167.25;3584520;40;20266;-81
2021/08/05 09:03:43;;;;;;;2.72;2.53;;;;;;;24.00;49.26;101169.28;3576081;40;20207;-81
2021/08/05 09:06:08;;;;;;;3.22;2.47;;;;;;;24.16;48.77;101173.13;3577186;40;20731;-80
2021/08/05 09:08:37;;;;;;;3.35;2.40;;;;;;;24.06;49.69;101163.84;3576146;40;20255;-79
2021/08/05 09:11:02;;;;;;;4.55;2.58;;;;;;;24.22;48.81;101164.25;3584198;40;20263;-80
2021/08/05 09:13:27;;;;;;;3.20;2.28;;;;;;;24.11;48.43;101159.31;3573579;40;20235;-80
2021/08/05 09:15:53;;;;;;;4.38;2.53;;;;;;;24.12;49.06;101158.41;3568402;40;20591;-80
2021/08/05 09:18:49;;;;;;;3.88;2.70;;;;;;;24.22;47.23;101159.00;3575892;40;20234;-80
2021/08/05 09:21:23;;;;;;;3.80;2.88;;;;;;;24.36;46.40;101149.78;3575483;40;20241;-81
2021/08/05 09:24:06;;;;;;;2.50;2.20;;;;;;;24.16;47.46;101152.19;3572001;40;20281;-81
2021/08/05 09:26:33;;;;;;;3.38;2.45;;;;;;;24.41;47.96;101147.03;3576742;40;20226;-80
2021/08/05 09:29:08;;;;;;;3.38;2.33;;;;;;;24.38;47.63;101149.75;3576272;40;20272;-80
2021/08/05 09:31:35;;;;;;;2.20;2.00;;;;;;;24.47;47.78;101144.22;3576102;40;20285;-80
2021/08/05 09:34:07;;;;;;;2.20;2.00;;;;;;;24.73;47.34;101144.25;3576363;40;20235;-80
2021/08/05 09:36:33;;;;;;;2.40;2.20;;;;;;;24.83;45.93;101145.66;3575633;40;20636;-80
2021/08/05 09:39:00;;;;;;;4.25;2.50;;;;;;;25.05;46.58;101139.59;3575733;40;20300;-80
2021/08/05 09:41:25;;;;;;;4.32;2.20;;;;;;;25.20;46.23;101141.69;3583355;40;20251;-81
2021/08/05 09:43:59;;;;;;;2.47;2.28;;;;;;;25.17;46.21;101138.31;3575797;40;20273;-80
2021/08/05 09:46:32;;;;;;;2.20;2.00;;;;;;;25.51;46.09;101136.22;3571982;40;20241;-80
2021/08/05 09:48:57;;;;;;;2.95;2.50;;;;;;;25.92;43.50;101132.88;3574572;40;20341;-80
2021/08/05 09:51:23;;;;;;;2.45;2.25;;;;;;;25.97;43.13;101131.81;3575872;40;20254;-80
2021/08/05 09:54:03;;;;;;;3.35;2.45;;;;;;;26.14;42.70;101129.38;3575343;40;20222;-80
2021/08/05 09:56:33;;;;;;;2.33;2.05;;;;;;;26.01;43.30;101120.28;3575083;40;20229;-81
2021/08/05 09:59:13;;;;;;;2.75;2.28;;;;;;;25.78;44.51;101112.41;3575221;40;20230;-81
2021/08/05 10:02:05;;;;;;;2.63;2.42;;;;;;;25.91;42.96;101108.41;3575500;40;20852;-81
2021/08/05 10:04:32;;;;;;;4.75;2.47;;;;;;;25.96;42.49;101103.84;3575575;40;20230;-81
2021/08/05 10:07:10;;;;;;;3.00;2.17;;;;;;;25.93;42.83;101108.38;3576686;40;20235;-82
2021/08/05 10:09:37;;;;;;;3.10;2.58;;;;;;;26.18;44.14;101106.47;3583608;40;20253;-80
2021/08/05 10:12:25;;;;;;;3.47;2.58;;;;;;;26.27;41.43;101106.97;3575066;40;20222;-81
2021/08/05 10:15:04;;;;;;;4.63;2.95;;;;;;;26.26;41.97;101091.25;3575174;40;20280;-79
2021/08/05 10:17:31;;;;;;;3.20;2.78;;;;;;;26.32;41.77;101097.13;3582832;40;20308;-81
2021/08/05 10:19:57;;;;;;;3.17;2.80;;;;;;;26.37;42.15;101094.28;3576764;40;20242;-81
2021/08/05 10:22:23;;;;;;;3.03;2.47;;;;;;;26.35;44.13;101088.25;3583365;40;20250;-80
2021/08/05 10:24:50;;;;;;;3.67;2.85;;;;;;;26.37;43.41;101078.53;3576503;40;20235;-80
2021/08/05 10:27:18;;;;;;;3.20;2.50;;;;;;;26.75;41.57;101080.44;3575707;40;20227;-80
2021/08/05 10:29:44;;;;;;;3.85;2.70;;;;;;;26.88;41.52;101069.31;3582973;40;20525;-82
2021/08/05 10:32:12;;;;;;;3.00;2.60;;;;;;;26.78;42.06;101082.91;3575147;40;20234;-81
2021/08/05 10:34:39;;;;;;;4.13;2.50;;;;;;;26.82;40.76;101068.72;3575194;40;20226;-80
2021/08/05 10:37:06;;;;;;;2.53;2.25;;;;;;;26.84;42.19;101069.53;3574467;40;20253;-80
2021/08/05 10:39:34;;;;;;;2.13;2.00;;;;;;;26.85;41.67;101065.97;3576407;40;20285;-81
2021/08/05 10:42:00;;;;;;;2.75;2.50;;;;;;;26.93;41.15;101058.63;3575430;40;20226;-81
2021/08/05 10:44:27;;;;;;;3.33;2.15;;;;;;;26.83;41.81;101063.41;3575159;40;20266;-80
2021/08/05 10:46:55;;;;;;;4.18;2.60;;;;;;;26.88;40.90;101064.06;3574256;40;20230;-80
2021/08/05 10:49:20;;;;;;;3.53;2.60;;;;;;;26.68;40.36;101055.34;3573102;40;20227;-80
2021/08/05 10:51:45;;;;;;;3.40;2.58;;;;;;;26.57;40.55;101053.16;3574053;40;20605;-80
2021/08/05 10:54:10;;;;;;;2.97;2.60;;;;;;;26.21;41.72;101053.81;3574267;40;20222;-80
2021/08/05 10:56:36;;;;;;;3.15;2.58;;;;;;;26.00;42.09;101052.06;3573792;40;20738;-80
2021/08/05 10:59:13;;;;;;;4.38;2.25;;;;;;;25.83;42.44;101055.34;3573908;40;20238;-79
2021/08/05 11:01:53;;;;;;;2.65;2.25;;;;;;;25.57;43.57;101045.03;3582622;40;20268;-81
2021/08/05 11:04:34;;;;;;;2.58;2.38;;;;;;;25.31;43.29;101039.91;3573004;40;20750;-81
2021/08/05 11:07:21;;;;;;;2.83;2.63;;;;;;;25.56;42.90;101045.06;3571945;40;20251;-81
2021/08/05 11:09:47;;;;;;;2.67;2.13;;;;;;;25.25;43.67;101039.25;3569151;40;20249;-79
2021/08/05 11:12:39;;;;;;;2.58;2.38;;;;;;;25.23;44.05;101043.69;3576723;40;20222;-80
2021/08/05 11:15:30;;;;;;;4.07;2.50;;;;;;;25.61;44.73;101035.25;3572693;40;20239;-81
2021/08/05 11:18:10;;;;;;;3.35;2.20;;;;;;;25.87;42.24;101032.47;3572479;40;20305;-80
2021/08/05 11:20:38;;;;;;;2.53;2.33;;;;;;;25.80;41.90;101023.97;3572549;40;20589;-80
2021/08/05 11:23:04;;;;;;;3.22;2.10;;;;;;;25.66;43.96;101031.53;3573414;40;20238;-86
2021/08/05 11:25:52;;;;;;;4.72;2.72;;;;;;;25.45;43.34;101028.88;3574507;40;20332;-81